sensor_id;sensor_type;location;lat;lon;timestamp;pressure;altitude;pressure_sealevel;temperature;humidity
49645;BME280;36494;50.730;-1.932;2023-04-09T00:01:02;101864.07;;;7.79;100.00
49645;BME280;36494;50.730;-1.932;2023-04-09T00:03:25;101857.69;;;7.76;100.00
49645;BME280;36494;50.730;-1.932;2023-04-09T00:05:50;101852.66;;;7.73;100.00
49645;BME280;36494;50.730;-1.932;2023-04-09T00:08:15;101850.78;;;7.75;100.00
49645;BME280;36494;50.730;-1.932;2023-04-09T00:10:41;101852.07;;;7.70;100.00
49645;BME280;36494;50.730;-1.932;2023-04-09T00:13:06;101851.59;;;7.71;100.00
49645;BME280;36494;50.730;-1.932;2023-04-09T00:15:32;101852.75;;;7.71;100.00
49645;BME280;36494;50.730;-1.932;2023-04-09T00:17:57;101849.75;;;7.70;100.00
49645;BME280;36494;50.730;-1.932;2023-04-09T00:20:22;101846.96;;;7.65;100.00
49645;BME280;36494;50.730;-1.932;2023-04-09T00:22:48;101846.42;;;7.63;100.00
49645;BME280;36494;50.730;-1.932;2023-04-09T00:25:13;101844.28;;;7.63;100.00
49645;BME280;36494;50.730;-1.932;2023-04-09T00:27:39;101846.59;;;7.63;100.00
49645;BME280;36494;50.730;-1.932;2023-04-09T00:30:07;101850.30;;;7.60;100.00
49645;BME280;36494;50.730;-1.932;2023-04-09T00:32:30;101846.18;;;7.59;100.00
49645;BME280;36494;50.730;-1.932;2023-04-09T00:34:55;101845.53;;;7.58;100.00
49645;BME280;36494;50.730;-1.932;2023-04-09T00:37:20;101846.30;;;7.58;100.00
49645;BME280;36494;50.730;-1.932;2023-04-09T00:39:46;101840.47;;;7.57;100.00
49645;BME280;36494;50.730;-1.932;2023-04-09T00:42:11;101838.83;;;7.55;100.00
49645;BME280;36494;50.730;-1.932;2023-04-09T00:44:36;101835.69;;;7.54;100.00
49645;BME280;36494;50.730;-1.932;2023-04-09T00:47:02;101831.88;;;7.52;100.00
49645;BME280;36494;50.730;-1.932;2023-04-09T00:49:27;101828.67;;;7.50;100.00
49645;BME280;36494;50.730;-1.932;2023-04-09T00:51:53;101827.70;;;7.48;100.00
49645;BME280;36494;50.730;-1.932;2023-04-09T00:54:18;101828.32;;;7.47;100.00
49645;BME280;36494;50.730;-1.932;2023-04-09T00:56:44;101827.78;;;7.45;100.00
49645;BME280;36494;50.730;-1.932;2023-04-09T00:59:08;101827.45;;;7.42;100.00
49645;BME280;36494;50.730;-1.932;2023-04-09T01:01:34;101822.44;;;7.42;100.00
49645;BME280;36494;50.730;-1.932;2023-04-09T01:03:59;101817.55;;;7.39;100.00
49645;BME280;36494;50.730;-1.932;2023-04-09T01:06:29;101815.11;;;7.37;100.00
49645;BME280;36494;50.730;-1.932;2023-04-09T01:08:56;101808.27;;;7.34;100.00
49645;BME280;36494;50.730;-1.932;2023-04-09T01:11:22;101805.47;;;7.32;100.00
49645;BME280;36494;50.730;-1.932;2023-04-09T01:13:47;101800.44;;;7.29;100.00
49645;BME280;36494;50.730;-1.932;2023-04-09T01:16:09;101799.83;;;7.26;100.00
49645;BME280;36494;50.730;-1.932;2023-04-09T01:18:37;101795.43;;;7.23;100.00
49645;BME280;36494;50.730;-1.932;2023-04-09T01:20:59;101794.65;;;7.18;100.00
49645;BME280;36494;50.730;-1.932;2023-04-09T01:23:31;101792.22;;;7.15;100.00
49645;BME280;36494;50.730;-1.932;2023-04-09T01:26:00;101790.66;;;7.12;100.00
49645;BME280;36494;50.730;-1.932;2023-04-09T01:28:15;101792.86;;;7.09;100.00
49645;BME280;36494;50.730;-1.932;2023-04-09T01:30:39;101793.24;;;7.06;100.00
49645;BME280;36494;50.730;-1.932;2023-04-09T01:33:05;101790.16;;;7.03;100.00
49645;BME280;36494;50.730;-1.932;2023-04-09T01:35:29;101783.92;;;7.01;100.00
49645;BME280;36494;50.730;-1.932;2023-04-09T01:37:56;101778.82;;;6.98;100.00
49645;BME280;36494;50.730;-1.932;2023-04-09T01:40:21;101778.37;;;6.95;100.00
49645;BME280;36494;50.730;-1.932;2023-04-09T01:42:47;101772.77;;;6.93;100.00
49645;BME280;36494;50.730;-1.932;2023-04-09T01:45:13;101769.23;;;6.89;100.00
49645;BME280;36494;50.730;-1.932;2023-04-09T01:47:37;101767.86;;;6.87;100.00
49645;BME280;36494;50.730;-1.932;2023-04-09T01:50:03;101771.33;;;6.83;100.00
49645;BME280;36494;50.730;-1.932;2023-04-09T01:52:28;101780.09;;;6.79;100.00
49645;BME280;36494;50.730;-1.932;2023-04-09T01:54:54;101788.24;;;6.78;100.00
49645;BME280;36494;50.730;-1.932;2023-04-09T01:57:19;101791.50;;;6.74;100.00
49645;BME280;36494;50.730;-1.932;2023-04-09T01:59:44;101791.37;;;6.72;100.00
49645;BME280;36494;50.730;-1.932;2023-04-09T02:02:16;101788.92;;;6.68;100.00
49645;BME280;36494;50.730;-1.932;2023-04-09T02:04:40;101787.97;;;6.64;100.00
49645;BME280;36494;50.730;-1.932;2023-04-09T02:07:08;101786.45;;;6.62;100.00
49645;BME280;36494;50.730;-1.932;2023-04-09T02:09:29;101782.70;;;6.59;100.00
49645;BME280;36494;50.730;-1.932;2023-04-09T02:11:52;101776.77;;;6.57;100.00
49645;BME280;36494;50.730;-1.932;2023-04-09T02:14:17;101772.23;;;6.54;100.00
49645;BME280;36494;50.730;-1.932;2023-04-09T02:16:42;101769.62;;;6.52;100.00
49645;BME280;36494;50.730;-1.932;2023-04-09T02:19:08;101771.41;;;6.49;100.00
49645;BME280;36494;50.730;-1.932;2023-04-09T02:21:33;101767.04;;;6.47;100.00
49645;BME280;36494;50.730;-1.932;2023-04-09T02:23:59;101768.09;;;6.44;100.00
49645;BME280;36494;50.730;-1.932;2023-04-09T02:26:25;101770.55;;;6.43;100.00
49645;BME280;36494;50.730;-1.932;2023-04-09T02:28:50;101769.02;;;6.40;100.00
49645;BME280;36494;50.730;-1.932;2023-04-09T02:31:16;101773.10;;;6.38;100.00
49645;BME280;36494;50.730;-1.932;2023-04-09T02:33:41;101778.32;;;6.36;100.00
49645;BME280;36494;50.730;-1.932;2023-04-09T02:36:10;101776.94;;;6.34;100.00
49645;BME280;36494;50.730;-1.932;2023-04-09T02:38:32;101772.12;;;6.32;100.00
49645;BME280;36494;50.730;-1.932;2023-04-09T02:40:58;101772.48;;;6.32;100.00
49645;BME280;36494;50.730;-1.932;2023-04-09T02:43:24;101778.02;;;6.30;100.00
49645;BME280;36494;50.730;-1.932;2023-04-09T02:45:49;101777.93;;;6.29;100.00
49645;BME280;36494;50.730;-1.932;2023-04-09T02:48:15;101776.56;;;6.28;100.00
49645;BME280;36494;50.730;-1.932;2023-04-09T02:50:40;101775.36;;;6.26;100.00
49645;BME280;36494;50.730;-1.932;2023-04-09T02:53:06;101773.24;;;6.24;100.00
49645;BME280;36494;50.730;-1.932;2023-04-09T02:55:31;101771.58;;;6.24;100.00
49645;BME280;36494;50.730;-1.932;2023-04-09T02:57:56;101767.38;;;6.23;100.00
49645;BME280;36494;50.730;-1.932;2023-04-09T03:00:22;101767.05;;;6.21;100.00
49645;BME280;36494;50.730;-1.932;2023-04-09T03:02:48;101765.98;;;6.20;100.00
49645;BME280;36494;50.730;-1.932;2023-04-09T03:05:13;101762.66;;;6.19;100.00
49645;BME280;36494;50.730;-1.932;2023-04-09T03:07:39;101759.82;;;6.17;100.00
49645;BME280;36494;50.730;-1.932;2023-04-09T03:10:05;101757.52;;;6.15;100.00
49645;BME280;36494;50.730;-1.932;2023-04-09T03:12:30;101755.18;;;6.15;100.00
49645;BME280;36494;50.730;-1.932;2023-04-09T03:14:56;101754.06;;;6.13;100.00
49645;BME280;36494;50.730;-1.932;2023-04-09T03:17:22;101756.38;;;6.12;100.00
49645;BME280;36494;50.730;-1.932;2023-04-09T03:19:47;101754.19;;;6.11;100.00
49645;BME280;36494;50.730;-1.932;2023-04-09T03:22:12;101747.47;;;6.09;100.00
49645;BME280;36494;50.730;-1.932;2023-04-09T03:24:38;101742.79;;;6.10;100.00
49645;BME280;36494;50.730;-1.932;2023-04-09T03:27:03;101737.99;;;6.09;100.00
49645;BME280;36494;50.730;-1.932;2023-04-09T03:29:28;101737.80;;;6.08;100.00
49645;BME280;36494;50.730;-1.932;2023-04-09T03:31:54;101732.79;;;6.07;100.00
49645;BME280;36494;50.730;-1.932;2023-04-09T03:34:19;101731.72;;;6.07;100.00
49645;BME280;36494;50.730;-1.932;2023-04-09T03:36:44;101728.99;;;6.07;100.00
49645;BME280;36494;50.730;-1.932;2023-04-09T03:39:10;101729.51;;;6.07;100.00
49645;BME280;36494;50.730;-1.932;2023-04-09T03:41:36;101725.73;;;6.06;100.00
49645;BME280;36494;50.730;-1.932;2023-04-09T03:44:02;101726.54;;;6.06;100.00
49645;BME280;36494;50.730;-1.932;2023-04-09T03:46:27;101724.47;;;6.06;100.00
49645;BME280;36494;50.730;-1.932;2023-04-09T03:48:53;101720.26;;;6.05;100.00
49645;BME280;36494;50.730;-1.932;2023-04-09T03:51:19;101718.49;;;6.04;100.00
49645;BME280;36494;50.730;-1.932;2023-04-09T03:53:44;101715.99;;;6.05;100.00
49645;BME280;36494;50.730;-1.932;2023-04-09T03:56:10;101713.44;;;6.04;100.00
49645;BME280;36494;50.730;-1.932;2023-04-09T03:58:36;101714.61;;;6.04;100.00
49645;BME280;36494;50.730;-1.932;2023-04-09T04:01:01;101716.10;;;6.02;100.00
49645;BME280;36494;50.730;-1.932;2023-04-09T04:03:26;101714.71;;;6.03;100.00
49645;BME280;36494;50.730;-1.932;2023-04-09T04:05:51;101711.52;;;6.01;100.00
49645;BME280;36494;50.730;-1.932;2023-04-09T04:08:17;101708.35;;;6.02;100.00
49645;BME280;36494;50.730;-1.932;2023-04-09T04:10:42;101706.82;;;6.00;100.00
49645;BME280;36494;50.730;-1.932;2023-04-09T04:13:08;101699.17;;;6.00;100.00
49645;BME280;36494;50.730;-1.932;2023-04-09T04:15:38;101696.44;;;6.00;100.00
49645;BME280;36494;50.730;-1.932;2023-04-09T04:17:59;101694.81;;;5.98;100.00
49645;BME280;36494;50.730;-1.932;2023-04-09T04:20:25;101693.64;;;5.96;100.00
49645;BME280;36494;50.730;-1.932;2023-04-09T04:22:50;101692.25;;;5.95;100.00
49645;BME280;36494;50.730;-1.932;2023-04-09T04:25:15;101682.78;;;5.94;100.00
49645;BME280;36494;50.730;-1.932;2023-04-09T04:27:41;101678.74;;;5.93;100.00
49645;BME280;36494;50.730;-1.932;2023-04-09T04:30:07;101674.69;;;5.92;100.00
49645;BME280;36494;50.730;-1.932;2023-04-09T04:32:32;101668.85;;;5.91;100.00
49645;BME280;36494;50.730;-1.932;2023-04-09T04:34:57;101662.53;;;5.89;100.00
49645;BME280;36494;50.730;-1.932;2023-04-09T04:37:22;101659.90;;;5.88;100.00
49645;BME280;36494;50.730;-1.932;2023-04-09T04:39:47;101655.86;;;5.84;100.00
49645;BME280;36494;50.730;-1.932;2023-04-09T04:42:13;101655.70;;;5.82;100.00
49645;BME280;36494;50.730;-1.932;2023-04-09T04:44:39;101656.14;;;5.80;100.00
49645;BME280;36494;50.730;-1.932;2023-04-09T04:47:04;101656.57;;;5.77;100.00
49645;BME280;36494;50.730;-1.932;2023-04-09T04:49:29;101650.97;;;5.75;100.00
49645;BME280;36494;50.730;-1.932;2023-04-09T04:51:54;101647.63;;;5.74;100.00
49645;BME280;36494;50.730;-1.932;2023-04-09T04:54:20;101645.72;;;5.73;100.00
49645;BME280;36494;50.730;-1.932;2023-04-09T04:56:45;101648.36;;;5.73;100.00
49645;BME280;36494;50.730;-1.932;2023-04-09T04:59:10;101647.25;;;5.77;100.00
49645;BME280;36494;50.730;-1.932;2023-04-09T05:01:35;101647.84;;;5.81;100.00
49645;BME280;36494;50.730;-1.932;2023-04-09T05:04:01;101648.59;;;5.97;100.00
49645;BME280;36494;50.730;-1.932;2023-04-09T05:06:26;101649.46;;;6.08;100.00
49645;BME280;36494;50.730;-1.932;2023-04-09T05:08:51;101654.66;;;6.21;100.00
49645;BME280;36494;50.730;-1.932;2023-04-09T05:11:16;101654.57;;;6.30;100.00
49645;BME280;36494;50.730;-1.932;2023-04-09T05:13:42;101664.61;;;6.39;100.00
49645;BME280;36494;50.730;-1.932;2023-04-09T05:16:07;101672.10;;;6.48;100.00
49645;BME280;36494;50.730;-1.932;2023-04-09T05:18:33;101676.15;;;6.53;100.00
49645;BME280;36494;50.730;-1.932;2023-04-09T05:20:58;101676.62;;;6.59;100.00
49645;BME280;36494;50.730;-1.932;2023-04-09T05:23:23;101683.17;;;6.62;100.00
49645;BME280;36494;50.730;-1.932;2023-04-09T05:25:49;101684.44;;;6.68;100.00
49645;BME280;36494;50.730;-1.932;2023-04-09T05:28:15;101683.90;;;6.73;100.00
49645;BME280;36494;50.730;-1.932;2023-04-09T05:30:41;101681.08;;;6.78;100.00
49645;BME280;36494;50.730;-1.932;2023-04-09T05:33:07;101679.72;;;6.86;100.00
49645;BME280;36494;50.730;-1.932;2023-04-09T05:35:32;101677.65;;;6.92;100.00
49645;BME280;36494;50.730;-1.932;2023-04-09T05:37:57;101673.12;;;6.94;100.00
49645;BME280;36494;50.730;-1.932;2023-04-09T05:40:23;101673.36;;;7.00;100.00
49645;BME280;36494;50.730;-1.932;2023-04-09T05:42:48;101675.87;;;7.06;100.00
49645;BME280;36494;50.730;-1.932;2023-04-09T05:45:13;101679.47;;;7.10;100.00
49645;BME280;36494;50.730;-1.932;2023-04-09T05:47:39;101680.49;;;7.14;100.00
49645;BME280;36494;50.730;-1.932;2023-04-09T05:50:05;101681.01;;;7.16;100.00
49645;BME280;36494;50.730;-1.932;2023-04-09T05:52:30;101679.61;;;7.23;100.00
49645;BME280;36494;50.730;-1.932;2023-04-09T05:54:55;101677.38;;;7.26;100.00
49645;BME280;36494;50.730;-1.932;2023-04-09T05:57:21;101678.91;;;7.30;100.00
49645;BME280;36494;50.730;-1.932;2023-04-09T05:59:46;101683.43;;;7.33;100.00
49645;BME280;36494;50.730;-1.932;2023-04-09T06:02:12;101687.69;;;7.38;100.00
49645;BME280;36494;50.730;-1.932;2023-04-09T06:04:37;101690.95;;;7.40;100.00
49645;BME280;36494;50.730;-1.932;2023-04-09T06:07:02;101689.13;;;7.45;100.00
49645;BME280;36494;50.730;-1.932;2023-04-09T06:09:28;101688.30;;;7.51;100.00
49645;BME280;36494;50.730;-1.932;2023-04-09T06:11:53;101694.25;;;7.53;100.00
49645;BME280;36494;50.730;-1.932;2023-04-09T06:14:18;101693.03;;;7.57;100.00
49645;BME280;36494;50.730;-1.932;2023-04-09T06:16:44;101692.21;;;7.59;100.00
49645;BME280;36494;50.730;-1.932;2023-04-09T06:19:09;101691.56;;;7.63;100.00
49645;BME280;36494;50.730;-1.932;2023-04-09T06:21:35;101690.61;;;7.68;100.00
49645;BME280;36494;50.730;-1.932;2023-04-09T06:24:00;101689.12;;;7.71;100.00
49645;BME280;36494;50.730;-1.932;2023-04-09T06:26:25;101688.55;;;7.77;100.00
49645;BME280;36494;50.730;-1.932;2023-04-09T06:28:51;101684.14;;;7.77;100.00
49645;BME280;36494;50.730;-1.932;2023-04-09T06:31:16;101685.78;;;7.80;100.00
49645;BME280;36494;50.730;-1.932;2023-04-09T06:33:42;101680.80;;;7.82;100.00
49645;BME280;36494;50.730;-1.932;2023-04-09T06:36:07;101680.68;;;7.83;100.00
49645;BME280;36494;50.730;-1.932;2023-04-09T06:38:33;101680.98;;;7.87;100.00
49645;BME280;36494;50.730;-1.932;2023-04-09T06:40:58;101678.09;;;7.89;100.00
49645;BME280;36494;50.730;-1.932;2023-04-09T06:43:23;101674.70;;;7.90;100.00
49645;BME280;36494;50.730;-1.932;2023-04-09T06:45:48;101674.16;;;7.94;100.00
49645;BME280;36494;50.730;-1.932;2023-04-09T06:48:14;101677.29;;;8.00;100.00
49645;BME280;36494;50.730;-1.932;2023-04-09T06:50:39;101678.93;;;7.99;100.00
49645;BME280;36494;50.730;-1.932;2023-04-09T06:53:05;101681.48;;;8.03;100.00
49645;BME280;36494;50.730;-1.932;2023-04-09T06:55:30;101686.04;;;8.05;100.00
49645;BME280;36494;50.730;-1.932;2023-04-09T06:57:55;101683.56;;;8.08;100.00
49645;BME280;36494;50.730;-1.932;2023-04-09T07:00:21;101685.47;;;8.13;100.00
49645;BME280;36494;50.730;-1.932;2023-04-09T07:02:46;101678.64;;;8.16;100.00
49645;BME280;36494;50.730;-1.932;2023-04-09T07:05:12;101671.99;;;8.17;100.00
49645;BME280;36494;50.730;-1.932;2023-04-09T07:07:37;101668.66;;;8.21;100.00
49645;BME280;36494;50.730;-1.932;2023-04-09T07:10:03;101668.86;;;8.25;100.00
49645;BME280;36494;50.730;-1.932;2023-04-09T07:12:30;101668.80;;;8.29;100.00
49645;BME280;36494;50.730;-1.932;2023-04-09T07:14:56;101672.93;;;8.35;100.00
49645;BME280;36494;50.730;-1.932;2023-04-09T07:17:20;101667.00;;;8.36;100.00
49645;BME280;36494;50.730;-1.932;2023-04-09T07:19:45;101660.28;;;8.40;100.00
49645;BME280;36494;50.730;-1.932;2023-04-09T07:22:11;101653.33;;;8.42;100.00
49645;BME280;36494;50.730;-1.932;2023-04-09T07:24:36;101653.19;;;8.44;100.00
49645;BME280;36494;50.730;-1.932;2023-04-09T07:27:02;101649.63;;;8.47;100.00
49645;BME280;36494;50.730;-1.932;2023-04-09T07:29:27;101652.00;;;8.47;100.00
49645;BME280;36494;50.730;-1.932;2023-04-09T07:31:53;101653.78;;;8.49;100.00
49645;BME280;36494;50.730;-1.932;2023-04-09T07:34:19;101656.22;;;8.58;100.00
49645;BME280;36494;50.730;-1.932;2023-04-09T07:36:43;101647.74;;;8.61;100.00
49645;BME280;36494;50.730;-1.932;2023-04-09T07:39:09;101650.27;;;8.65;100.00
49645;BME280;36494;50.730;-1.932;2023-04-09T07:41:34;101653.88;;;8.62;100.00
49645;BME280;36494;50.730;-1.932;2023-04-09T07:43:59;101657.05;;;8.68;100.00
49645;BME280;36494;50.730;-1.932;2023-04-09T07:46:25;101655.30;;;8.68;100.00
49645;BME280;36494;50.730;-1.932;2023-04-09T07:48:51;101661.87;;;8.74;100.00
49645;BME280;36494;50.730;-1.932;2023-04-09T07:51:16;101662.43;;;8.75;100.00
49645;BME280;36494;50.730;-1.932;2023-04-09T07:53:42;101653.45;;;8.82;100.00
49645;BME280;36494;50.730;-1.932;2023-04-09T07:56:07;101648.24;;;8.86;100.00
49645;BME280;36494;50.730;-1.932;2023-04-09T07:58:33;101645.20;;;8.88;100.00
49645;BME280;36494;50.730;-1.932;2023-04-09T08:00:58;101645.37;;;8.96;100.00
49645;BME280;36494;50.730;-1.932;2023-04-09T08:03:24;101644.08;;;9.02;100.00
49645;BME280;36494;50.730;-1.932;2023-04-09T08:05:49;101640.89;;;9.00;100.00
49645;BME280;36494;50.730;-1.932;2023-04-09T08:08:15;101640.02;;;9.04;100.00
49645;BME280;36494;50.730;-1.932;2023-04-09T08:10:40;101643.09;;;9.08;100.00
49645;BME280;36494;50.730;-1.932;2023-04-09T08:13:06;101641.86;;;9.08;100.00
49645;BME280;36494;50.730;-1.932;2023-04-09T08:15:31;101642.42;;;9.17;100.00
49645;BME280;36494;50.730;-1.932;2023-04-09T08:17:57;101643.91;;;9.23;100.00
49645;BME280;36494;50.730;-1.932;2023-04-09T08:20:23;101645.01;;;9.27;100.00
49645;BME280;36494;50.730;-1.932;2023-04-09T08:22:48;101644.38;;;9.17;100.00
49645;BME280;36494;50.730;-1.932;2023-04-09T08:25:13;101645.02;;;9.28;100.00
49645;BME280;36494;50.730;-1.932;2023-04-09T08:27:39;101640.41;;;9.18;100.00
49645;BME280;36494;50.730;-1.932;2023-04-09T08:30:06;101643.67;;;9.17;100.00
49645;BME280;36494;50.730;-1.932;2023-04-09T08:32:30;101649.12;;;9.39;100.00
49645;BME280;36494;50.730;-1.932;2023-04-09T08:34:56;101650.68;;;9.49;100.00
49645;BME280;36494;50.730;-1.932;2023-04-09T08:37:21;101646.65;;;9.51;100.00
49645;BME280;36494;50.730;-1.932;2023-04-09T08:39:47;101647.28;;;9.66;100.00
49645;BME280;36494;50.730;-1.932;2023-04-09T08:42:13;101640.38;;;9.69;100.00
49645;BME280;36494;50.730;-1.932;2023-04-09T08:44:37;101634.67;;;9.66;100.00
49645;BME280;36494;50.730;-1.932;2023-04-09T08:47:07;101634.49;;;9.80;100.00
49645;BME280;36494;50.730;-1.932;2023-04-09T08:49:27;101632.63;;;9.78;100.00
49645;BME280;36494;50.730;-1.932;2023-04-09T08:51:53;101639.24;;;9.77;100.00
49645;BME280;36494;50.730;-1.932;2023-04-09T08:54:18;101637.03;;;9.80;100.00
49645;BME280;36494;50.730;-1.932;2023-04-09T08:56:43;101635.57;;;9.91;100.00
49645;BME280;36494;50.730;-1.932;2023-04-09T08:59:09;101635.80;;;9.92;100.00
49645;BME280;36494;50.730;-1.932;2023-04-09T09:01:34;101627.40;;;9.80;100.00
49645;BME280;36494;50.730;-1.932;2023-04-09T09:04:01;101627.26;;;9.81;100.00
49645;BME280;36494;50.730;-1.932;2023-04-09T09:06:27;101626.20;;;9.96;100.00
49645;BME280;36494;50.730;-1.932;2023-04-09T09:09:01;101629.87;;;10.10;100.00
49645;BME280;36494;50.730;-1.932;2023-04-09T09:11:24;101627.44;;;10.14;100.00
49645;BME280;36494;50.730;-1.932;2023-04-09T09:13:42;101630.19;;;10.12;100.00
49645;BME280;36494;50.730;-1.932;2023-04-09T09:16:13;101629.29;;;10.20;100.00
49645;BME280;36494;50.730;-1.932;2023-04-09T09:18:38;101637.42;;;10.32;100.00
49645;BME280;36494;50.730;-1.932;2023-04-09T09:21:08;101634.30;;;10.34;100.00
49645;BME280;36494;50.730;-1.932;2023-04-09T09:23:33;101636.68;;;10.38;100.00
49645;BME280;36494;50.730;-1.932;2023-04-09T09:25:49;101635.53;;;10.46;100.00
49645;BME280;36494;50.730;-1.932;2023-04-09T09:28:15;101631.19;;;10.41;100.00
49645;BME280;36494;50.730;-1.932;2023-04-09T09:30:41;101631.98;;;10.41;100.00
49645;BME280;36494;50.730;-1.932;2023-04-09T09:33:07;101637.32;;;10.45;100.00
49645;BME280;36494;50.730;-1.932;2023-04-09T09:38:01;101642.12;;;10.58;100.00
49645;BME280;36494;50.730;-1.932;2023-04-09T09:40:26;101639.51;;;10.71;100.00
49645;BME280;36494;50.730;-1.932;2023-04-09T09:42:53;101643.34;;;10.65;100.00
49645;BME280;36494;50.730;-1.932;2023-04-09T09:45:17;101642.22;;;10.61;100.00
49645;BME280;36494;50.730;-1.932;2023-04-09T09:47:38;101644.74;;;10.66;100.00
49645;BME280;36494;50.730;-1.932;2023-04-09T09:50:05;101643.47;;;10.55;100.00
49645;BME280;36494;50.730;-1.932;2023-04-09T09:52:29;101639.93;;;10.40;100.00
49645;BME280;36494;50.730;-1.932;2023-04-09T09:54:56;101636.59;;;10.42;100.00
49645;BME280;36494;50.730;-1.932;2023-04-09T09:57:20;101634.99;;;10.58;100.00
49645;BME280;36494;50.730;-1.932;2023-04-09T09:59:50;101631.92;;;10.65;100.00
49645;BME280;36494;50.730;-1.932;2023-04-09T10:02:17;101635.03;;;10.87;100.00
49645;BME280;36494;50.730;-1.932;2023-04-09T10:04:36;101636.58;;;10.84;100.00
49645;BME280;36494;50.730;-1.932;2023-04-09T10:07:03;101631.36;;;11.08;100.00
49645;BME280;36494;50.730;-1.932;2023-04-09T10:09:26;101634.34;;;11.10;100.00
49645;BME280;36494;50.730;-1.932;2023-04-09T10:11:52;101630.95;;;11.18;100.00
49645;BME280;36494;50.730;-1.932;2023-04-09T10:14:17;101634.20;;;11.22;100.00
49645;BME280;36494;50.730;-1.932;2023-04-09T10:16:42;101634.53;;;11.24;100.00
49645;BME280;36494;50.730;-1.932;2023-04-09T10:19:08;101629.31;;;11.19;100.00
49645;BME280;36494;50.730;-1.932;2023-04-09T10:21:39;101622.44;;;11.38;100.00
49645;BME280;36494;50.730;-1.932;2023-04-09T10:23:59;101623.74;;;11.61;100.00
49645;BME280;36494;50.730;-1.932;2023-04-09T10:26:25;101620.66;;;11.76;100.00
49645;BME280;36494;50.730;-1.932;2023-04-09T10:29:04;101621.12;;;12.04;100.00
49645;BME280;36494;50.730;-1.932;2023-04-09T10:31:16;101624.70;;;12.30;100.00
49645;BME280;36494;50.730;-1.932;2023-04-09T10:33:42;101622.24;;;12.10;100.00
49645;BME280;36494;50.730;-1.932;2023-04-09T10:36:10;101620.53;;;12.04;100.00
49645;BME280;36494;50.730;-1.932;2023-04-09T10:38:33;101623.18;;;12.34;100.00
49645;BME280;36494;50.730;-1.932;2023-04-09T10:40:57;101617.30;;;12.46;100.00
49645;BME280;36494;50.730;-1.932;2023-04-09T10:43:22;101615.94;;;12.36;100.00
49645;BME280;36494;50.730;-1.932;2023-04-09T10:45:47;101609.95;;;12.23;100.00
49645;BME280;36494;50.730;-1.932;2023-04-09T10:48:13;101603.40;;;12.15;100.00
49645;BME280;36494;50.730;-1.932;2023-04-09T10:50:40;101601.26;;;12.12;100.00
49645;BME280;36494;50.730;-1.932;2023-04-09T10:53:04;101602.57;;;12.47;100.00
49645;BME280;36494;50.730;-1.932;2023-04-09T10:55:33;101604.41;;;12.76;100.00
49645;BME280;36494;50.730;-1.932;2023-04-09T10:57:54;101601.98;;;12.48;100.00
49645;BME280;36494;50.730;-1.932;2023-04-09T11:00:20;101594.96;;;12.38;100.00
49645;BME280;36494;50.730;-1.932;2023-04-09T11:05:18;101586.64;;;12.65;100.00
49645;BME280;36494;50.730;-1.932;2023-04-09T11:07:39;101586.16;;;12.77;100.00
49645;BME280;36494;50.730;-1.932;2023-04-09T11:10:01;101572.79;;;12.94;100.00
49645;BME280;36494;50.730;-1.932;2023-04-09T11:12:27;101574.00;;;13.02;100.00
49645;BME280;36494;50.730;-1.932;2023-04-09T11:14:53;101569.34;;;13.03;100.00
49645;BME280;36494;50.730;-1.932;2023-04-09T11:17:18;101564.86;;;12.85;100.00
49645;BME280;36494;50.730;-1.932;2023-04-09T11:19:43;101568.88;;;12.48;100.00
49645;BME280;36494;50.730;-1.932;2023-04-09T11:22:09;101564.18;;;12.66;100.00
49645;BME280;36494;50.730;-1.932;2023-04-09T11:24:40;101555.90;;;12.84;100.00
49645;BME280;36494;50.730;-1.932;2023-04-09T11:27:00;101552.58;;;13.11;100.00
49645;BME280;36494;50.730;-1.932;2023-04-09T11:29:24;101551.75;;;12.87;100.00
49645;BME280;36494;50.730;-1.932;2023-04-09T11:31:50;101549.32;;;13.04;100.00
49645;BME280;36494;50.730;-1.932;2023-04-09T11:34:16;101543.80;;;13.11;100.00
49645;BME280;36494;50.730;-1.932;2023-04-09T11:36:41;101539.74;;;13.44;100.00
49645;BME280;36494;50.730;-1.932;2023-04-09T11:39:06;101540.72;;;13.20;100.00
49645;BME280;36494;50.730;-1.932;2023-04-09T11:41:33;101536.87;;;13.06;100.00
49645;BME280;36494;50.730;-1.932;2023-04-09T11:43:57;101535.14;;;13.03;100.00
49645;BME280;36494;50.730;-1.932;2023-04-09T11:46:22;101527.77;;;12.91;100.00
49645;BME280;36494;50.730;-1.932;2023-04-09T11:48:48;101527.48;;;12.87;100.00
49645;BME280;36494;50.730;-1.932;2023-04-09T11:51:13;101528.26;;;12.82;100.00
49645;BME280;36494;50.730;-1.932;2023-04-09T11:53:38;101523.08;;;12.67;100.00
49645;BME280;36494;50.730;-1.932;2023-04-09T11:56:04;101525.83;;;12.79;100.00
49645;BME280;36494;50.730;-1.932;2023-04-09T11:58:29;101524.12;;;12.84;100.00
49645;BME280;36494;50.730;-1.932;2023-04-09T12:00:57;101520.35;;;12.96;100.00
49645;BME280;36494;50.730;-1.932;2023-04-09T12:03:27;101516.78;;;13.04;100.00
49645;BME280;36494;50.730;-1.932;2023-04-09T12:05:45;101515.76;;;13.00;100.00
49645;BME280;36494;50.730;-1.932;2023-04-09T12:08:11;101510.05;;;13.46;100.00
49645;BME280;36494;50.730;-1.932;2023-04-09T12:10:37;101508.37;;;13.03;100.00
49645;BME280;36494;50.730;-1.932;2023-04-09T12:13:04;101510.93;;;13.15;100.00
49645;BME280;36494;50.730;-1.932;2023-04-09T12:15:31;101511.74;;;13.71;100.00
49645;BME280;36494;50.730;-1.932;2023-04-09T12:17:54;101505.63;;;13.34;100.00
49645;BME280;36494;50.730;-1.932;2023-04-09T12:20:29;101511.27;;;13.19;100.00
49645;BME280;36494;50.730;-1.932;2023-04-09T12:22:44;101512.63;;;13.21;100.00
49645;BME280;36494;50.730;-1.932;2023-04-09T12:25:09;101517.15;;;12.76;100.00
49645;BME280;36494;50.730;-1.932;2023-04-09T12:27:34;101512.07;;;12.85;100.00
49645;BME280;36494;50.730;-1.932;2023-04-09T12:30:00;101512.83;;;13.03;100.00
49645;BME280;36494;50.730;-1.932;2023-04-09T12:32:25;101512.10;;;13.01;100.00